sensor_id;sensor_type;location;lat;lon;timestamp;P1;durP1;ratioP1;P2;durP2;ratioP2
62092;SDS011;59819;52.976;6.846;2022-08-26T00:01:22;22.80;;;20.42;;
62092;SDS011;59819;52.976;6.846;2022-08-26T00:03:48;25.55;;;22.83;;
62092;SDS011;59819;52.976;6.846;2022-08-26T00:06:14;26.27;;;22.98;;
62092;SDS011;59819;52.976;6.846;2022-08-26T00:08:40;27.48;;;24.58;;
62092;SDS011;59819;52.976;6.846;2022-08-26T00:11:07;29.95;;;26.65;;
62092;SDS011;59819;52.976;6.846;2022-08-26T00:13:34;30.17;;;26.98;;
62092;SDS011;59819;52.976;6.846;2022-08-26T00:16:00;31.95;;;28.38;;
62092;SDS011;59819;52.976;6.846;2022-08-26T00:18:26;35.00;;;31.30;;
62092;SDS011;59819;52.976;6.846;2022-08-26T00:20:52;36.35;;;32.25;;
62092;SDS011;59819;52.976;6.846;2022-08-26T00:23:19;37.65;;;33.67;;
62092;SDS011;59819;52.976;6.846;2022-08-26T00:25:45;42.15;;;37.80;;
62092;SDS011;59819;52.976;6.846;2022-08-26T00:28:11;37.60;;;33.97;;
62092;SDS011;59819;52.976;6.846;2022-08-26T00:30:38;40.90;;;36.42;;
62092;SDS011;59819;52.976;6.846;2022-08-26T00:33:04;44.40;;;39.63;;
62092;SDS011;59819;52.976;6.846;2022-08-26T00:35:30;46.78;;;41.75;;
62092;SDS011;59819;52.976;6.846;2022-08-26T00:37:56;43.42;;;39.00;;
62092;SDS011;59819;52.976;6.846;2022-08-26T00:40:25;47.45;;;42.55;;
62092;SDS011;59819;52.976;6.846;2022-08-26T00:42:51;51.75;;;46.13;;
62092;SDS011;59819;52.976;6.846;2022-08-26T00:45:18;52.00;;;46.53;;
62092;SDS011;59819;52.976;6.846;2022-08-26T00:50:11;56.00;;;49.15;;
62092;SDS011;59819;52.976;6.846;2022-08-26T00:52:38;53.95;;;48.17;;
62092;SDS011;59819;52.976;6.846;2022-08-26T00:57:33;51.75;;;46.17;;
62092;SDS011;59819;52.976;6.846;2022-08-26T01:00:01;56.67;;;50.58;;
62092;SDS011;59819;52.976;6.846;2022-08-26T01:02:29;57.28;;;51.03;;
62092;SDS011;59819;52.976;6.846;2022-08-26T01:04:56;59.38;;;52.97;;
62092;SDS011;59819;52.976;6.846;2022-08-26T01:07:24;58.90;;;51.58;;
62092;SDS011;59819;52.976;6.846;2022-08-26T01:09:50;58.67;;;52.33;;
62092;SDS011;59819;52.976;6.846;2022-08-26T01:12:16;55.50;;;49.60;;
62092;SDS011;59819;52.976;6.846;2022-08-26T01:14:42;59.28;;;52.80;;
62092;SDS011;59819;52.976;6.846;2022-08-26T01:17:10;60.47;;;51.92;;
62092;SDS011;59819;52.976;6.846;2022-08-26T01:19:43;57.00;;;50.97;;
62092;SDS011;59819;52.976;6.846;2022-08-26T01:22:16;61.15;;;52.22;;
62092;SDS011;59819;52.976;6.846;2022-08-26T01:24:44;61.97;;;53.00;;
62092;SDS011;59819;52.976;6.846;2022-08-26T01:27:11;62.17;;;52.08;;
62092;SDS011;59819;52.976;6.846;2022-08-26T01:29:38;61.95;;;52.33;;
62092;SDS011;59819;52.976;6.846;2022-08-26T01:32:06;68.45;;;53.75;;
62092;SDS011;59819;52.976;6.846;2022-08-26T01:34:35;70.97;;;55.83;;
62092;SDS011;59819;52.976;6.846;2022-08-26T01:37:12;66.55;;;52.38;;
62092;SDS011;59819;52.976;6.846;2022-08-26T01:39:38;68.95;;;52.70;;
62092;SDS011;59819;52.976;6.846;2022-08-26T01:42:05;69.35;;;51.92;;
62092;SDS011;59819;52.976;6.846;2022-08-26T01:44:33;62.53;;;50.78;;
62092;SDS011;59819;52.976;6.846;2022-08-26T01:47:00;67.03;;;52.75;;
62092;SDS011;59819;52.976;6.846;2022-08-26T01:49:26;72.80;;;51.38;;
62092;SDS011;59819;52.976;6.846;2022-08-26T01:51:54;64.93;;;51.92;;
62092;SDS011;59819;52.976;6.846;2022-08-26T01:54:20;69.28;;;51.20;;
62092;SDS011;59819;52.976;6.846;2022-08-26T01:56:46;63.25;;;49.53;;
62092;SDS011;59819;52.976;6.846;2022-08-26T01:59:13;60.70;;;48.13;;
62092;SDS011;59819;52.976;6.846;2022-08-26T02:01:39;63.53;;;47.28;;
62092;SDS011;59819;52.976;6.846;2022-08-26T02:06:32;64.35;;;47.50;;
62092;SDS011;59819;52.976;6.846;2022-08-26T02:08:59;63.47;;;47.42;;
62092;SDS011;59819;52.976;6.846;2022-08-26T02:11:25;68.15;;;47.63;;
62092;SDS011;59819;52.976;6.846;2022-08-26T02:13:56;63.05;;;47.03;;
62092;SDS011;59819;52.976;6.846;2022-08-26T02:16:26;66.50;;;47.47;;
62092;SDS011;59819;52.976;6.846;2022-08-26T02:18:55;61.17;;;46.45;;
62092;SDS011;59819;52.976;6.846;2022-08-26T02:21:22;65.13;;;47.20;;
62092;SDS011;59819;52.976;6.846;2022-08-26T02:23:48;62.72;;;47.95;;
62092;SDS011;59819;52.976;6.846;2022-08-26T02:26:17;61.58;;;45.90;;
62092;SDS011;59819;52.976;6.846;2022-08-26T02:28:45;65.75;;;45.30;;
62092;SDS011;59819;52.976;6.846;2022-08-26T02:31:13;60.22;;;46.00;;
62092;SDS011;59819;52.976;6.846;2022-08-26T02:33:39;57.95;;;44.90;;
62092;SDS011;59819;52.976;6.846;2022-08-26T02:36:05;53.88;;;42.53;;
62092;SDS011;59819;52.976;6.846;2022-08-26T02:38:32;62.10;;;44.28;;
62092;SDS011;59819;52.976;6.846;2022-08-26T02:40:58;59.80;;;44.35;;
62092;SDS011;59819;52.976;6.846;2022-08-26T02:43:24;57.50;;;42.22;;
62092;SDS011;59819;52.976;6.846;2022-08-26T02:45:50;59.72;;;43.33;;
62092;SDS011;59819;52.976;6.846;2022-08-26T02:48:16;61.55;;;45.50;;
62092;SDS011;59819;52.976;6.846;2022-08-26T02:50:43;58.92;;;43.00;;
62092;SDS011;59819;52.976;6.846;2022-08-26T02:53:09;56.92;;;43.05;;
62092;SDS011;59819;52.976;6.846;2022-08-26T02:55:36;61.58;;;44.15;;
62092;SDS011;59819;52.976;6.846;2022-08-26T02:58:02;62.05;;;44.78;;
62092;SDS011;59819;52.976;6.846;2022-08-26T03:00:28;58.38;;;42.50;;
62092;SDS011;59819;52.976;6.846;2022-08-26T03:02:55;60.22;;;44.97;;
62092;SDS011;59819;52.976;6.846;2022-08-26T03:05:22;61.20;;;45.38;;
62092;SDS011;59819;52.976;6.846;2022-08-26T03:07:49;61.85;;;45.60;;
62092;SDS011;59819;52.976;6.846;2022-08-26T03:10:15;63.28;;;45.30;;
62092;SDS011;59819;52.976;6.846;2022-08-26T03:12:42;56.90;;;43.97;;
62092;SDS011;59819;52.976;6.846;2022-08-26T03:15:09;57.55;;;44.20;;
62092;SDS011;59819;52.976;6.846;2022-08-26T03:17:35;63.75;;;45.40;;
62092;SDS011;59819;52.976;6.846;2022-08-26T03:20:02;68.20;;;45.42;;
62092;SDS011;59819;52.976;6.846;2022-08-26T03:22:32;64.15;;;46.40;;
62092;SDS011;59819;52.976;6.846;2022-08-26T03:24:58;60.15;;;45.05;;
62092;SDS011;59819;52.976;6.846;2022-08-26T03:27:24;60.88;;;46.28;;
62092;SDS011;59819;52.976;6.846;2022-08-26T03:29:50;59.85;;;46.08;;
62092;SDS011;59819;52.976;6.846;2022-08-26T03:32:35;63.22;;;45.65;;
62092;SDS011;59819;52.976;6.846;2022-08-26T03:35:01;63.65;;;47.92;;
62092;SDS011;59819;52.976;6.846;2022-08-26T03:37:27;58.28;;;45.70;;
62092;SDS011;59819;52.976;6.846;2022-08-26T03:39:53;61.13;;;44.78;;
62092;SDS011;59819;52.976;6.846;2022-08-26T03:42:19;63.55;;;46.28;;
62092;SDS011;59819;52.976;6.846;2022-08-26T03:44:46;61.13;;;45.72;;
62092;SDS011;59819;52.976;6.846;2022-08-26T03:47:12;63.75;;;47.28;;
62092;SDS011;59819;52.976;6.846;2022-08-26T03:49:38;67.70;;;46.67;;
62092;SDS011;59819;52.976;6.846;2022-08-26T03:52:04;60.85;;;44.90;;
62092;SDS011;59819;52.976;6.846;2022-08-26T03:54:30;58.03;;;45.67;;
62092;SDS011;59819;52.976;6.846;2022-08-26T03:56:57;59.35;;;45.72;;
62092;SDS011;59819;52.976;6.846;2022-08-26T03:59:23;61.17;;;45.22;;
62092;SDS011;59819;52.976;6.846;2022-08-26T04:01:49;58.38;;;43.90;;
62092;SDS011;59819;52.976;6.846;2022-08-26T04:04:15;55.85;;;43.60;;
62092;SDS011;59819;52.976;6.846;2022-08-26T04:06:41;56.80;;;43.25;;
62092;SDS011;59819;52.976;6.846;2022-08-26T04:09:09;53.85;;;43.03;;
62092;SDS011;59819;52.976;6.846;2022-08-26T04:11:35;57.25;;;42.72;;
62092;SDS011;59819;52.976;6.846;2022-08-26T04:14:04;57.47;;;41.97;;
62092;SDS011;59819;52.976;6.846;2022-08-26T04:16:30;60.10;;;42.10;;
62092;SDS011;59819;52.976;6.846;2022-08-26T04:18:57;56.42;;;41.45;;
62092;SDS011;59819;52.976;6.846;2022-08-26T04:21:23;57.85;;;40.75;;
62092;SDS011;59819;52.976;6.846;2022-08-26T04:23:50;56.25;;;39.40;;
62092;SDS011;59819;52.976;6.846;2022-08-26T04:26:16;52.92;;;38.35;;
62092;SDS011;59819;52.976;6.846;2022-08-26T04:28:43;52.83;;;37.70;;
62092;SDS011;59819;52.976;6.846;2022-08-26T04:31:10;58.10;;;38.95;;
62092;SDS011;59819;52.976;6.846;2022-08-26T04:33:36;48.38;;;36.72;;
62092;SDS011;59819;52.976;6.846;2022-08-26T04:36:03;52.58;;;37.15;;
62092;SDS011;59819;52.976;6.846;2022-08-26T04:38:29;53.72;;;37.58;;
62092;SDS011;59819;52.976;6.846;2022-08-26T04:40:56;50.47;;;36.88;;
62092;SDS011;59819;52.976;6.846;2022-08-26T04:43:23;54.08;;;37.63;;
62092;SDS011;59819;52.976;6.846;2022-08-26T04:45:54;52.10;;;38.05;;
62092;SDS011;59819;52.976;6.846;2022-08-26T04:48:21;51.53;;;36.35;;
62092;SDS011;59819;52.976;6.846;2022-08-26T04:50:47;50.88;;;35.63;;
62092;SDS011;59819;52.976;6.846;2022-08-26T04:53:13;54.88;;;35.72;;
62092;SDS011;59819;52.976;6.846;2022-08-26T04:55:39;49.65;;;34.90;;
62092;SDS011;59819;52.976;6.846;2022-08-26T04:58:05;54.40;;;34.92;;
62092;SDS011;59819;52.976;6.846;2022-08-26T05:00:33;51.65;;;34.10;;
62092;SDS011;59819;52.976;6.846;2022-08-26T05:02:59;45.97;;;33.58;;
62092;SDS011;59819;52.976;6.846;2022-08-26T05:05:25;47.55;;;34.15;;
62092;SDS011;59819;52.976;6.846;2022-08-26T05:07:51;48.25;;;33.03;;
62092;SDS011;59819;52.976;6.846;2022-08-26T05:10:17;45.97;;;31.92;;
62092;SDS011;59819;52.976;6.846;2022-08-26T05:12:43;47.90;;;31.65;;
62092;SDS011;59819;52.976;6.846;2022-08-26T05:15:09;43.22;;;30.08;;
62092;SDS011;59819;52.976;6.846;2022-08-26T05:17:36;42.55;;;29.90;;
62092;SDS011;59819;52.976;6.846;2022-08-26T05:20:02;40.28;;;29.65;;
62092;SDS011;59819;52.976;6.846;2022-08-26T05:22:28;38.33;;;29.83;;
62092;SDS011;59819;52.976;6.846;2022-08-26T05:24:54;41.05;;;30.58;;
62092;SDS011;59819;52.976;6.846;2022-08-26T05:27:20;43.58;;;30.45;;
62092;SDS011;59819;52.976;6.846;2022-08-26T05:29:46;41.35;;;29.52;;
62092;SDS011;59819;52.976;6.846;2022-08-26T05:32:13;39.95;;;30.42;;
62092;SDS011;59819;52.976;6.846;2022-08-26T05:34:39;42.30;;;29.20;;
62092;SDS011;59819;52.976;6.846;2022-08-26T05:37:05;43.42;;;30.10;;
62092;SDS011;59819;52.976;6.846;2022-08-26T05:39:31;42.30;;;30.65;;
62092;SDS011;59819;52.976;6.846;2022-08-26T05:41:57;45.95;;;29.80;;
62092;SDS011;59819;52.976;6.846;2022-08-26T05:44:24;40.35;;;30.08;;
62092;SDS011;59819;52.976;6.846;2022-08-26T05:46:50;39.72;;;30.13;;
62092;SDS011;59819;52.976;6.846;2022-08-26T05:49:16;42.15;;;29.95;;
62092;SDS011;59819;52.976;6.846;2022-08-26T05:51:42;38.38;;;28.75;;
62092;SDS011;59819;52.976;6.846;2022-08-26T05:54:10;42.65;;;29.48;;
62092;SDS011;59819;52.976;6.846;2022-08-26T05:56:37;40.92;;;29.80;;
62092;SDS011;59819;52.976;6.846;2022-08-26T05:59:03;38.30;;;30.73;;
62092;SDS011;59819;52.976;6.846;2022-08-26T06:01:29;38.58;;;30.40;;
62092;SDS011;59819;52.976;6.846;2022-08-26T06:03:59;43.03;;;32.00;;
62092;SDS011;59819;52.976;6.846;2022-08-26T06:06:27;40.95;;;30.70;;
62092;SDS011;59819;52.976;6.846;2022-08-26T06:08:54;41.67;;;30.00;;
62092;SDS011;59819;52.976;6.846;2022-08-26T06:11:22;43.92;;;31.58;;
62092;SDS011;59819;52.976;6.846;2022-08-26T06:13:49;41.33;;;31.60;;
62092;SDS011;59819;52.976;6.846;2022-08-26T06:16:19;40.83;;;30.17;;
62092;SDS011;59819;52.976;6.846;2022-08-26T06:23:39;36.97;;;31.35;;
62092;SDS011;59819;52.976;6.846;2022-08-26T06:26:24;43.33;;;31.75;;
62092;SDS011;59819;52.976;6.846;2022-08-26T06:28:50;42.75;;;32.13;;
62092;SDS011;59819;52.976;6.846;2022-08-26T06:31:16;41.28;;;29.52;;
62092;SDS011;59819;52.976;6.846;2022-08-26T06:33:42;42.58;;;28.42;;
62092;SDS011;59819;52.976;6.846;2022-08-26T06:36:12;44.42;;;28.70;;
62092;SDS011;59819;52.976;6.846;2022-08-26T06:38:39;40.83;;;30.42;;
62092;SDS011;59819;52.976;6.846;2022-08-26T06:41:06;39.55;;;29.88;;
62092;SDS011;59819;52.976;6.846;2022-08-26T06:43:35;42.42;;;29.85;;
62092;SDS011;59819;52.976;6.846;2022-08-26T06:46:02;36.50;;;28.50;;
62092;SDS011;59819;52.976;6.846;2022-08-26T06:48:28;41.38;;;29.02;;
62092;SDS011;59819;52.976;6.846;2022-08-26T06:51:08;41.45;;;29.52;;
62092;SDS011;59819;52.976;6.846;2022-08-26T06:53:35;42.13;;;29.85;;
62092;SDS011;59819;52.976;6.846;2022-08-26T06:56:03;39.00;;;29.75;;
62092;SDS011;59819;52.976;6.846;2022-08-26T06:58:29;36.85;;;27.42;;
62092;SDS011;59819;52.976;6.846;2022-08-26T07:00:55;34.20;;;25.45;;
62092;SDS011;59819;52.976;6.846;2022-08-26T07:03:22;29.83;;;21.40;;
62092;SDS011;59819;52.976;6.846;2022-08-26T07:05:48;33.75;;;21.90;;
62092;SDS011;59819;52.976;6.846;2022-08-26T07:08:14;29.70;;;22.42;;
62092;SDS011;59819;52.976;6.846;2022-08-26T07:10:41;35.08;;;23.17;;
62092;SDS011;59819;52.976;6.846;2022-08-26T07:13:07;28.73;;;20.92;;
62092;SDS011;59819;52.976;6.846;2022-08-26T07:15:33;32.00;;;20.92;;
62092;SDS011;59819;52.976;6.846;2022-08-26T07:18:00;27.25;;;19.80;;
62092;SDS011;59819;52.976;6.846;2022-08-26T07:20:27;31.63;;;21.80;;
62092;SDS011;59819;52.976;6.846;2022-08-26T07:22:53;29.75;;;21.38;;
62092;SDS011;59819;52.976;6.846;2022-08-26T07:25:19;28.13;;;20.35;;
62092;SDS011;59819;52.976;6.846;2022-08-26T07:27:45;27.33;;;19.88;;
62092;SDS011;59819;52.976;6.846;2022-08-26T07:30:11;30.33;;;19.05;;
62092;SDS011;59819;52.976;6.846;2022-08-26T07:32:38;26.05;;;19.17;;
62092;SDS011;59819;52.976;6.846;2022-08-26T07:35:04;27.45;;;20.20;;
62092;SDS011;59819;52.976;6.846;2022-08-26T07:37:30;28.35;;;19.17;;
62092;SDS011;59819;52.976;6.846;2022-08-26T07:39:56;31.63;;;20.25;;
62092;SDS011;59819;52.976;6.846;2022-08-26T07:42:23;29.17;;;18.65;;
62092;SDS011;59819;52.976;6.846;2022-08-26T07:44:49;27.73;;;18.67;;
62092;SDS011;59819;52.976;6.846;2022-08-26T07:47:15;24.05;;;17.00;;
62092;SDS011;59819;52.976;6.846;2022-08-26T07:49:41;23.33;;;17.25;;
62092;SDS011;59819;52.976;6.846;2022-08-26T07:52:07;23.92;;;17.42;;
62092;SDS011;59819;52.976;6.846;2022-08-26T07:54:33;26.58;;;17.17;;
62092;SDS011;59819;52.976;6.846;2022-08-26T07:57:01;25.60;;;16.30;;
62092;SDS011;59819;52.976;6.846;2022-08-26T07:59:27;21.70;;;15.57;;
62092;SDS011;59819;52.976;6.846;2022-08-26T08:01:53;24.88;;;16.35;;
62092;SDS011;59819;52.976;6.846;2022-08-26T08:04:21;26.25;;;15.98;;
62092;SDS011;59819;52.976;6.846;2022-08-26T08:06:47;24.48;;;15.95;;
62092;SDS011;59819;52.976;6.846;2022-08-26T08:09:13;24.55;;;15.35;;
62092;SDS011;59819;52.976;6.846;2022-08-26T08:11:40;22.77;;;15.13;;
62092;SDS011;59819;52.976;6.846;2022-08-26T08:14:06;21.27;;;13.90;;
62092;SDS011;59819;52.976;6.846;2022-08-26T08:16:32;28.45;;;15.60;;
62092;SDS011;59819;52.976;6.846;2022-08-26T08:18:58;25.63;;;14.80;;
62092;SDS011;59819;52.976;6.846;2022-08-26T08:21:25;23.13;;;14.35;;
62092;SDS011;59819;52.976;6.846;2022-08-26T08:23:51;25.67;;;15.05;;
62092;SDS011;59819;52.976;6.846;2022-08-26T08:26:18;19.77;;;14.23;;
62092;SDS011;59819;52.976;6.846;2022-08-26T08:28:45;29.38;;;13.82;;
62092;SDS011;59819;52.976;6.846;2022-08-26T08:31:20;24.33;;;13.68;;
62092;SDS011;59819;52.976;6.846;2022-08-26T08:33:47;20.70;;;12.82;;
62092;SDS011;59819;52.976;6.846;2022-08-26T08:36:13;19.73;;;12.23;;
62092;SDS011;59819;52.976;6.846;2022-08-26T08:38:40;15.52;;;10.45;;
62092;SDS011;59819;52.976;6.846;2022-08-26T08:41:13;14.95;;;10.10;;
62092;SDS011;59819;52.976;6.846;2022-08-26T08:43:41;18.73;;;9.68;;
62092;SDS011;59819;52.976;6.846;2022-08-26T08:46:13;17.17;;;10.90;;
62092;SDS011;59819;52.976;6.846;2022-08-26T08:48:43;20.50;;;10.52;;
62092;SDS011;59819;52.976;6.846;2022-08-26T08:51:18;16.63;;;11.15;;
62092;SDS011;59819;52.976;6.846;2022-08-26T08:53:46;18.63;;;11.52;;
62092;SDS011;59819;52.976;6.846;2022-08-26T09:01:11;14.88;;;10.15;;
62092;SDS011;59819;52.976;6.846;2022-08-26T09:03:48;14.75;;;10.13;;
62092;SDS011;59819;52.976;6.846;2022-08-26T09:06:18;16.40;;;10.00;;
62092;SDS011;59819;52.976;6.846;2022-08-26T09:08:45;12.98;;;8.73;;
62092;SDS011;59819;52.976;6.846;2022-08-26T09:11:11;14.27;;;9.88;;
62092;SDS011;59819;52.976;6.846;2022-08-26T09:13:39;15.57;;;8.65;;
62092;SDS011;59819;52.976;6.846;2022-08-26T09:16:14;11.95;;;8.35;;
62092;SDS011;59819;52.976;6.846;2022-08-26T09:21:14;10.20;;;6.90;;
62092;SDS011;59819;52.976;6.846;2022-08-26T09:23:41;9.52;;;6.55;;
62092;SDS011;59819;52.976;6.846;2022-08-26T09:26:16;10.95;;;6.50;;
62092;SDS011;59819;52.976;6.846;2022-08-26T09:28:54;10.85;;;5.97;;
62092;SDS011;59819;52.976;6.846;2022-08-26T09:31:31;11.98;;;5.50;;
62092;SDS011;59819;52.976;6.846;2022-08-26T09:34:14;7.78;;;5.40;;
62092;SDS011;59819;52.976;6.846;2022-08-26T09:36:42;13.57;;;5.07;;
62092;SDS011;59819;52.976;6.846;2022-08-26T09:42:09;7.18;;;4.28;;
62092;SDS011;59819;52.976;6.846;2022-08-26T09:47:03;9.55;;;4.40;;
62092;SDS011;59819;52.976;6.846;2022-08-26T09:49:34;9.90;;;4.78;;
62092;SDS011;59819;52.976;6.846;2022-08-26T09:52:05;11.05;;;4.95;;
62092;SDS011;59819;52.976;6.846;2022-08-26T09:54:32;8.65;;;3.97;;
62092;SDS011;59819;52.976;6.846;2022-08-26T09:59:43;10.07;;;4.00;;
62092;SDS011;59819;52.976;6.846;2022-08-26T10:02:42;12.25;;;4.25;;
62092;SDS011;59819;52.976;6.846;2022-08-26T10:05:04;11.32;;;3.47;;
62092;SDS011;59819;52.976;6.846;2022-08-26T10:07:44;14.32;;;4.13;;
62092;SDS011;59819;52.976;6.846;2022-08-26T10:10:19;9.93;;;3.70;;
62092;SDS011;59819;52.976;6.846;2022-08-26T10:13:08;7.38;;;3.17;;
62092;SDS011;59819;52.976;6.846;2022-08-26T10:15:43;8.77;;;3.47;;
62092;SDS011;59819;52.976;6.846;2022-08-26T10:18:19;8.85;;;3.70;;
62092;SDS011;59819;52.976;6.846;2022-08-26T10:20:50;9.05;;;3.80;;
62092;SDS011;59819;52.976;6.846;2022-08-26T10:23:19;8.85;;;4.00;;
62092;SDS011;59819;52.976;6.846;2022-08-26T10:30:58;9.30;;;3.92;;
62092;SDS011;59819;52.976;6.846;2022-08-26T10:33:25;12.02;;;4.47;;
62092;SDS011;59819;52.976;6.846;2022-08-26T10:35:53;9.68;;;4.13;;
62092;SDS011;59819;52.976;6.846;2022-08-26T10:38:24;9.80;;;4.28;;
62092;SDS011;59819;52.976;6.846;2022-08-26T10:44:01;8.98;;;4.22;;
62092;SDS011;59819;52.976;6.846;2022-08-26T10:46:12;10.40;;;3.90;;
62092;SDS011;59819;52.976;6.846;2022-08-26T10:48:45;9.70;;;4.10;;
62092;SDS011;59819;52.976;6.846;2022-08-26T10:51:14;11.70;;;4.30;;
62092;SDS011;59819;52.976;6.846;2022-08-26T10:53:43;10.32;;;3.78;;
62092;SDS011;59819;52.976;6.846;2022-08-26T10:56:24;9.93;;;4.40;;
62092;SDS011;59819;52.976;6.846;2022-08-26T11:01:39;9.90;;;4.20;;
62092;SDS011;59819;52.976;6.846;2022-08-26T11:06:43;10.98;;;4.03;;
62092;SDS011;59819;52.976;6.846;2022-08-26T11:09:10;9.25;;;3.92;;
62092;SDS011;59819;52.976;6.846;2022-08-26T11:11:40;9.38;;;4.32;;
62092;SDS011;59819;52.976;6.846;2022-08-26T11:14:07;12.32;;;4.43;;
62092;SDS011;59819;52.976;6.846;2022-08-26T11:19:02;11.57;;;4.90;;
62092;SDS011;59819;52.976;6.846;2022-08-26T11:21:48;11.95;;;4.38;;
62092;SDS011;59819;52.976;6.846;2022-08-26T11:26:59;8.52;;;3.70;;
62092;SDS011;59819;52.976;6.846;2022-08-26T11:32:22;10.95;;;4.15;;
62092;SDS011;59819;52.976;6.846;2022-08-26T11:34:51;9.82;;;3.80;;
62092;SDS011;59819;52.976;6.846;2022-08-26T11:37:18;8.70;;;3.55;;
62092;SDS011;59819;52.976;6.846;2022-08-26T11:39:45;9.45;;;3.88;;
62092;SDS011;59819;52.976;6.846;2022-08-26T11:44:44;8.60;;;3.88;;
62092;SDS011;59819;52.976;6.846;2022-08-26T11:47:12;11.30;;;4.45;;
62092;SDS011;59819;52.976;6.846;2022-08-26T11:49:39;11.38;;;4.13;;
62092;SDS011;59819;52.976;6.846;2022-08-26T11:52:09;8.70;;;4.20;;
62092;SDS011;59819;52.976;6.846;2022-08-26T11:54:35;9.85;;;4.32;;
62092;SDS011;59819;52.976;6.846;2022-08-26T11:57:03;7.72;;;4.20;;
62092;SDS011;59819;52.976;6.846;2022-08-26T11:59:32;6.50;;;3.63;;
62092;SDS011;59819;52.976;6.846;2022-08-26T12:02:00;9.05;;;4.03;;
62092;SDS011;59819;52.976;6.846;2022-08-26T12:04:33;10.55;;;4.28;;
62092;SDS011;59819;52.976;6.846;2022-08-26T12:07:01;10.07;;;4.32;;
62092;SDS011;59819;52.976;6.846;2022-08-26T12:09:32;8.50;;;4.43;;
62092;SDS011;59819;52.976;6.846;2022-08-26T12:12:09;8.52;;;4.63;;
62092;SDS011;59819;52.976;6.846;2022-08-26T12:14:36;8.95;;;4.25;;
62092;SDS011;59819;52.976;6.846;2022-08-26T12:17:18;8.90;;;4.40;;
62092;SDS011;59819;52.976;6.846;2022-08-26T12:19:50;12.13;;;4.60;;
62092;SDS011;59819;52.976;6.846;2022-08-26T12:24:49;8.68;;;4.50;;
62092;SDS011;59819;52.976;6.846;2022-08-26T12:27:23;5.70;;;4.20;;
62092;SDS011;59819;52.976;6.846;2022-08-26T12:30:07;9.65;;;4.38;;
62092;SDS011;59819;52.976;6.846;2022-08-26T12:32:33;7.18;;;3.95;;
62092;SDS011;59819;52.976;6.846;2022-08-26T12:35:00;7.65;;;3.90;;
62092;SDS011;59819;52.976;6.846;2022-08-26T12:37:28;6.45;;;4.00;;
62092;SDS011;59819;52.976;6.846;2022-08-26T12:40:04;9.98;;;4.10;;
62092;SDS011;59819;52.976;6.846;2022-08-26T12:42:42;7.40;;;3.50;;
62092;SDS011;59819;52.976;6.846;2022-08-26T12:45:08;5.95;;;3.60;;
62092;SDS011;59819;52.976;6.846;2022-08-26T12:47:38;8.68;;;4.05;;
62092;SDS011;59819;52.976;6.846;2022-08-26T12:52:34;12.27;;;3.70;;
62092;SDS011;59819;52.976;6.846;2022-08-26T12:55:06;8.88;;;4.30;;
62092;SDS011;59819;52.976;6.846;2022-08-26T12:57:34;8.60;;;3.80;;
62092;SDS011;59819;52.976;6.846;2022-08-26T13:02:45;7.82;;;3.50;;
62092;SDS011;59819;52.976;6.846;2022-08-26T13:05:18;13.05;;;3.50;;
62092;SDS011;59819;52.976;6.846;2022-08-26T13:08:06;9.27;;;3.55;;
62092;SDS011;59819;52.976;6.846;2022-08-26T13:10:37;8.38;;;3.75;;
62092;SDS011;59819;52.976;6.846;2022-08-26T13:13:04;9.52;;;3.50;;
62092;SDS011;59819;52.976;6.846;2022-08-26T13:15:30;9.50;;;3.53;;
62092;SDS011;59819;52.976;6.846;2022-08-26T13:17:56;9.20;;;3.80;;
62092;SDS011;59819;52.976;6.846;2022-08-26T13:20:22;9.23;;;3.53;;
62092;SDS011;59819;52.976;6.846;2022-08-26T13:22:48;6.57;;;3.22;;
62092;SDS011;59819;52.976;6.846;2022-08-26T13:25:15;9.73;;;3.30;;
62092;SDS011;59819;52.976;6.846;2022-08-26T13:27:41;7.07;;;3.10;;
62092;SDS011;59819;52.976;6.846;2022-08-26T13:30:08;7.80;;;3.30;;
62092;SDS011;59819;52.976;6.846;2022-08-26T13:32:34;7.55;;;3.10;;
62092;SDS011;59819;52.976;6.846;2022-08-26T13:35:00;5.97;;;3.10;;
62092;SDS011;59819;52.976;6.846;2022-08-26T13:37:26;5.28;;;2.95;;
62092;SDS011;59819;52.976;6.846;2022-08-26T13:39:53;7.28;;;2.80;;
62092;SDS011;59819;52.976;6.846;2022-08-26T13:42:19;6.00;;;2.38;;
62092;SDS011;59819;52.976;6.846;2022-08-26T13:44:46;5.63;;;2.20;;
62092;SDS011;59819;52.976;6.846;2022-08-26T13:47:16;6.35;;;2.50;;
62092;SDS011;59819;52.976;6.846;2022-08-26T13:49:42;8.52;;;2.80;;
62092;SDS011;59819;52.976;6.846;2022-08-26T13:52:09;6.53;;;2.80;;
62092;SDS011;59819;52.976;6.846;2022-08-26T13:54:35;5.95;;;2.30;;
62092;SDS011;59819;52.976;6.846;2022-08-26T13:57:01;6.05;;;2.13;;
62092;SDS011;59819;52.976;6.846;2022-08-26T13:59:28;5.55;;;2.55;;
62092;SDS011;59819;52.976;6.846;2022-08-26T14:01:54;7.15;;;2.63;;
62092;SDS011;59819;52.976;6.846;2022-08-26T14:04:22;6.65;;;2.85;;
62092;SDS011;59819;52.976;6.846;2022-08-26T14:06:48;8.77;;;2.78;;
62092;SDS011;59819;52.976;6.846;2022-08-26T14:09:14;7.10;;;2.90;;
62092;SDS011;59819;52.976;6.846;2022-08-26T14:11:40;8.80;;;3.00;;
62092;SDS011;59819;52.976;6.846;2022-08-26T14:14:06;6.80;;;2.80;;
62092;SDS011;59819;52.976;6.846;2022-08-26T14:16:33;7.50;;;2.80;;
62092;SDS011;59819;52.976;6.846;2022-08-26T14:19:01;8.27;;;3.30;;
62092;SDS011;59819;52.976;6.846;2022-08-26T14:21:29;7.18;;;2.95;;
62092;SDS011;59819;52.976;6.846;2022-08-26T14:23:55;6.30;;;2.90;;
62092;SDS011;59819;52.976;6.846;2022-08-26T14:26:21;5.97;;;2.88;;
62092;SDS011;59819;52.976;6.846;2022-08-26T14:28:47;6.50;;;3.00;;
62092;SDS011;59819;52.976;6.846;2022-08-26T14:31:14;7.00;;;3.22;;
62092;SDS011;59819;52.976;6.846;2022-08-26T14:33:40;6.68;;;3.10;;
62092;SDS011;59819;52.976;6.846;2022-08-26T14:36:07;5.97;;;3.60;;
62092;SDS011;59819;52.976;6.846;2022-08-26T14:38:52;7.03;;;3.80;;
62092;SDS011;59819;52.976;6.846;2022-08-26T14:41:19;9.02;;;4.05;;
62092;SDS011;59819;52.976;6.846;2022-08-26T14:43:46;9.55;;;4.07;;
62092;SDS011;59819;52.976;6.846;2022-08-26T14:46:14;6.68;;;3.85;;
62092;SDS011;59819;52.976;6.846;2022-08-26T14:48:40;6.55;;;3.83;;
62092;SDS011;59819;52.976;6.846;2022-08-26T14:51:06;6.03;;;3.38;;
62092;SDS011;59819;52.976;6.846;2022-08-26T14:53:32;5.93;;;3.45;;
62092;SDS011;59819;52.976;6.846;2022-08-26T14:56:17;10.75;;;3.63;;
62092;SDS011;59819;52.976;6.846;2022-08-26T14:58:43;8.93;;;3.53;;
62092;SDS011;59819;52.976;6.846;2022-08-26T15:01:09;10.43;;;3.90;;
62092;SDS011;59819;52.976;6.846;2022-08-26T15:03:37;9.48;;;3.90;;
62092;SDS011;59819;52.976;6.846;2022-08-26T15:06:03;11.32;;;4.00;;
62092;SDS011;59819;52.976;6.846;2022-08-26T15:08:29;8.60;;;3.65;;
62092;SDS011;59819;52.976;6.846;2022-08-26T15:11:00;9.50;;;3.60;;
62092;SDS011;59819;52.976;6.846;2022-08-26T15:13:27;9.60;;;3.63;;
62092;SDS011;59819;52.976;6.846;2022-08-26T15:15:53;8.88;;;4.05;;
62092;SDS011;59819;52.976;6.846;2022-08-26T15:18:19;9.38;;;3.78;;
62092;SDS011;59819;52.976;6.846;2022-08-26T15:20:46;10.32;;;4.10;;
62092;SDS011;59819;52.976;6.846;2022-08-26T15:23:12;8.43;;;3.60;;
62092;SDS011;59819;52.976;6.846;2022-08-26T15:25:38;8.52;;;4.13;;
62092;SDS011;59819;52.976;6.846;2022-08-26T15:28:04;11.13;;;3.80;;
62092;SDS011;59819;52.976;6.846;2022-08-26T15:30:30;8.38;;;3.50;;
62092;SDS011;59819;52.976;6.846;2022-08-26T15:32:57;9.15;;;4.10;;
62092;SDS011;59819;52.976;6.846;2022-08-26T15:35:23;8.52;;;3.55;;